Time;durP1;ratioP1;P1;durP2;ratioP2;P2;SDS_P1;SDS_P2;PMS_P1;PMS_P2;Temp;Humidity;BMP_temperature;BMP_pressure;BME280_temperature;BME280_humidity;BME280_pressure;Samples;Min_cycle;Max_cycle;Signal;HPM_P1;HPM_P2
2022/11/25 00:00:39;;;;;;;16.17;5.70;;;;;;;8.04;100.00;100981.06;7379714;19;20019;-71
2022/11/25 00:03:08;;;;;;;16.55;4.55;;;;;;;8.07;100.00;100985.50;7378115;19;20100;-71
2022/11/25 00:05:38;;;;;;;18.13;4.90;;;;;;;8.06;100.00;100986.34;7380353;19;20015;-70
2022/11/25 00:08:08;;;;;;;12.43;4.15;;;;;;;8.15;100.00;100992.69;7378259;19;20018;-70
2022/11/25 00:10:37;;;;;;;16.85;5.03;;;;;;;8.09;100.00;100987.31;7377233;19;20436;-70
2022/11/25 00:13:09;;;;;;;17.15;4.13;;;;;;;8.08;100.00;100985.53;7377827;19;20006;-70
2022/11/25 00:15:39;;;;;;;16.27;4.43;;;;;;;8.12;100.00;100992.59;7377034;19;20014;-70
2022/11/25 00:18:09;;;;;;;13.48;5.22;;;;;;;8.13;100.00;100973.47;7380742;19;20014;-70
2022/11/25 00:20:39;;;;;;;15.18;4.60;;;;;;;8.14;100.00;100970.03;7376201;19;20066;-70
2022/11/25 00:23:08;;;;;;;15.20;4.75;;;;;;;8.13;100.00;100980.44;7376613;19;20306;-71
2022/11/25 00:25:38;;;;;;;10.90;3.85;;;;;;;8.19;100.00;100970.13;7372709;19;20018;-71
2022/11/25 00:28:10;;;;;;;12.93;4.70;;;;;;;8.22;100.00;100970.22;7376520;19;20017;-71
2022/11/25 00:30:40;;;;;;;16.65;4.55;;;;;;;8.27;100.00;100983.38;7376292;19;20015;-70
2022/11/25 00:33:10;;;;;;;14.13;4.25;;;;;;;8.26;100.00;100984.22;7373793;19;20025;-71
2022/11/25 00:35:39;;;;;;;10.77;4.30;;;;;;;8.27;100.00;100976.44;7377413;19;20487;-71
2022/11/25 00:38:09;;;;;;;16.13;5.05;;;;;;;8.28;100.00;100990.38;7371390;19;20021;-72
2022/11/25 00:40:39;;;;;;;16.83;5.68;;;;;;;8.30;100.00;100978.25;7379600;19;20011;-71
2022/11/25 00:45:53;;;;;;;10.65;5.18;;;;;;;8.31;100.00;100988.72;7374823;19;20018;-70
2022/11/25 00:48:23;;;;;;;11.35;4.82;;;;;;;8.29;100.00;100986.94;7376503;19;20014;-70
2022/11/25 00:50:53;;;;;;;15.85;5.30;;;;;;;8.29;100.00;101000.88;7378111;19;20047;-70
2022/11/25 00:53:24;;;;;;;12.77;4.25;;;;;;;8.29;100.00;100997.38;7372825;19;20078;-70
2022/11/25 00:58:50;;;;;;;20.17;5.50;;;;;;;8.26;100.00;100999.91;7372423;19;20118;-70
2022/11/25 01:01:19;;;;;;;18.50;5.20;;;;;;;8.23;100.00;100998.09;7376267;19;20153;-70
2022/11/25 01:03:51;;;;;;;15.63;5.22;;;;;;;8.19;100.00;101004.97;7375748;19;20017;-70
2022/11/25 01:06:20;;;;;;;18.52;5.35;;;;;;;8.21;100.00;100999.78;7376885;19;20253;-70
2022/11/25 01:08:50;;;;;;;13.07;5.85;;;;;;;8.21;100.00;101007.63;7375937;19;20163;-70
2022/11/25 01:11:21;;;;;;;18.20;7.35;;;;;;;8.20;100.00;101019.81;7377242;19;20731;-70
2022/11/25 01:13:55;;;;;;;16.33;5.43;;;;;;;8.25;100.00;101000.75;7377708;19;20078;-71
2022/11/25 01:16:31;;;;;;;12.88;5.95;;;;;;;8.22;100.00;101005.91;7375264;19;20006;-71
2022/11/25 01:19:04;;;;;;;12.60;5.63;;;;;;;8.23;100.00;101005.06;7380426;19;20094;-71
2022/11/25 01:21:36;;;;;;;14.07;6.25;;;;;;;8.27;100.00;100997.34;7373694;19;20627;-72
2022/11/25 01:24:07;;;;;;;13.93;5.68;;;;;;;8.24;100.00;100999.00;7375037;19;20011;-71
2022/11/25 01:26:38;;;;;;;17.75;6.20;;;;;;;8.26;100.00;101002.53;7363168;19;20038;-71
2022/11/25 01:29:17;;;;;;;12.10;5.80;;;;;;;8.24;100.00;100999.00;7375268;19;20018;-71
2022/11/25 01:31:49;;;;;;;16.33;6.00;;;;;;;8.29;100.00;101007.81;7375523;19;20011;-71
2022/11/25 01:34:22;;;;;;;14.57;5.43;;;;;;;8.28;100.00;101003.44;7373459;19;20058;-71
2022/11/25 01:36:52;;;;;;;14.95;4.38;;;;;;;8.28;100.00;101006.94;7373682;19;20019;-71
2022/11/25 01:39:23;;;;;;;13.32;4.38;;;;;;;8.35;100.00;100995.81;7375436;19;20471;-71
2022/11/25 01:42:00;;;;;;;11.55;4.35;;;;;;;8.32;100.00;100987.00;7372689;19;20014;-70
2022/11/25 01:44:34;;;;;;;16.83;5.85;;;;;;;8.32;100.00;101013.13;7375380;19;20070;-70
2022/11/25 01:47:13;;;;;;;11.18;4.53;;;;;;;8.34;100.00;101020.16;7373756;19;20026;-72
2022/11/25 01:49:48;;;;;;;15.52;4.82;;;;;;;8.34;100.00;101014.06;7375924;19;20014;-71
2022/11/25 01:52:22;;;;;;;18.42;4.82;;;;;;;8.32;100.00;101000.06;7373379;19;20098;-72
2022/11/25 01:54:57;;;;;;;12.40;4.28;;;;;;;8.30;100.00;100984.34;7374579;19;20017;-71
2022/11/25 01:57:32;;;;;;;11.07;3.70;;;;;;;8.29;100.00;100998.25;7382756;19;20018;-71
2022/11/25 02:00:06;;;;;;;12.32;4.32;;;;;;;8.27;100.00;100999.06;7381566;19;20011;-72
2022/11/25 02:02:36;;;;;;;14.38;3.30;;;;;;;8.23;100.00;101005.94;7383027;19;20098;-72
2022/11/25 02:05:10;;;;;;;14.43;4.30;;;;;;;8.25;100.00;101014.72;7383206;19;20021;-72
2022/11/25 02:07:43;;;;;;;14.48;4.22;;;;;;;8.28;100.00;101006.06;7383278;19;20035;-73
2022/11/25 02:10:16;;;;;;;13.90;4.10;;;;;;;8.26;100.00;101003.41;7378842;19;20021;-72
2022/11/25 02:12:47;;;;;;;14.00;3.85;;;;;;;8.29;100.00;101002.59;7383733;19;20082;-73
2022/11/25 02:15:20;;;;;;;15.23;4.55;;;;;;;8.25;100.00;101008.59;7374624;19;20082;-73
2022/11/25 02:17:50;;;;;;;14.20;4.28;;;;;;;8.23;100.00;101012.91;7375389;19;20473;-72
2022/11/25 02:20:22;;;;;;;14.75;3.75;;;;;;;8.22;100.00;101005.91;7377229;19;20019;-73
2022/11/25 02:22:58;;;;;;;13.25;3.78;;;;;;;8.25;100.00;101008.59;7375354;19;20078;-73
2022/11/25 02:25:32;;;;;;;13.15;3.85;;;;;;;8.18;100.00;101000.59;7376752;19;20018;-73
2022/11/25 02:28:06;;;;;;;13.52;3.67;;;;;;;8.17;100.00;101004.06;7377702;19;20011;-73
2022/11/25 02:30:36;;;;;;;;;;;;;;;8.15;100.00;101010.09;7378762;19;20018;-73
2022/11/25 02:33:06;;;;;;;12.70;3.33;;;;;;;8.14;100.00;101011.81;7379334;19;19936;-73
2022/11/25 02:35:39;;;;;;;10.45;3.63;;;;;;;8.12;100.00;101010.91;7374614;19;20010;-74
2022/11/25 02:38:14;;;;;;;8.93;3.45;;;;;;;8.10;100.00;101006.47;7373445;19;20011;-73
2022/11/25 02:40:54;;;;;;;9.77;3.67;;;;;;;8.10;100.00;101009.97;7374171;19;20365;-73
2022/11/25 02:43:24;;;;;;;9.73;2.92;;;;;;;8.07;100.00;101009.88;7376620;19;20021;-73
2022/11/25 02:46:02;;;;;;;10.57;3.30;;;;;;;8.09;100.00;101010.81;7374962;19;20507;-73
2022/11/25 02:48:36;;;;;;;9.07;3.47;;;;;;;8.07;100.00;101016.84;7376783;19;20042;-73
2022/11/25 02:51:29;;;;;;;8.70;3.35;;;;;;;8.01;100.00;101017.56;7375589;19;20414;-73
2022/11/25 02:54:00;;;;;;;10.10;3.20;;;;;;;8.04;100.00;101025.47;7378234;19;20199;-73
2022/11/25 02:56:35;;;;;;;6.78;2.45;;;;;;;8.00;100.00;101036.69;7383781;19;20025;-72
2022/11/25 02:59:06;;;;;;;9.40;2.75;;;;;;;8.02;100.00;101026.28;7383246;19;20363;-73
2022/11/25 03:01:37;;;;;;;7.50;3.03;;;;;;;8.00;100.00;101026.25;7373064;19;20011;-73
2022/11/25 03:04:07;;;;;;;8.70;3.10;;;;;;;7.97;100.00;101026.16;7378601;19;20007;-73
2022/11/25 03:06:37;;;;;;;8.88;2.80;;;;;;;7.96;100.00;101033.97;7375596;19;20019;-73
2022/11/25 03:09:07;;;;;;;5.97;2.40;;;;;;;7.97;100.00;101047.06;7371573;19;20015;-73
2022/11/25 03:14:23;;;;;;;8.68;2.83;;;;;;;7.87;100.00;101043.31;7376183;19;20546;-73
2022/11/25 03:16:58;;;;;;;11.10;3.00;;;;;;;7.84;100.00;101045.84;7373158;19;20021;-73
2022/11/25 03:19:29;;;;;;;7.93;2.97;;;;;;;7.86;100.00;101045.88;7374133;19;20018;-73
2022/11/25 03:22:01;;;;;;;8.43;2.65;;;;;;;7.84;100.00;101045.84;7373653;19;20013;-73
2022/11/25 03:24:33;;;;;;;15.63;3.67;;;;;;;7.84;100.00;101055.41;7372144;19;20024;-73
2022/11/25 03:27:09;;;;;;;9.07;3.25;;;;;;;7.81;100.00;101064.03;7379339;19;20082;-73
2022/11/25 03:29:41;;;;;;;;;;;;;;;7.80;100.00;101064.88;7375835;19;20010;-73
2022/11/25 03:32:23;;;;;;;8.68;3.30;;;;;;;7.84;100.00;101071.06;7372152;19;20276;-74
2022/11/25 03:35:17;;;;;;;10.52;3.13;;;;;;;7.82;100.00;101072.75;7376701;19;20015;-73
2022/11/25 03:38:13;;;;;;;6.93;2.63;;;;;;;7.80;100.00;101074.44;7365512;19;20010;-73
2022/11/25 03:41:17;;;;;;;6.65;2.85;;;;;;;7.78;100.00;101081.34;7376509;19;20035;-73
2022/11/25 03:44:21;;;;;;;12.60;3.15;;;;;;;7.73;100.00;101082.94;7371851;19;20002;-73
2022/11/25 03:53:27;;;;;;;9.93;2.22;;;;;;;7.65;100.00;101090.53;7367200;19;20010;-73
2022/11/25 04:37:55;;;;;;;5.28;1.65;;;;;;;7.23;100.00;101139.75;7369998;19;20026;-80
2022/11/25 04:40:25;;;;;;;5.50;1.50;;;;;;;7.22;100.00;101145.78;7366731;19;20014;-80
2022/11/25 04:42:55;;;;;;;6.40;1.60;;;;;;;7.24;100.00;101145.84;7369395;19;20025;-81
2022/11/25 04:45:34;;;;;;;5.28;1.58;;;;;;;7.20;100.00;101152.69;7368357;19;20006;-81
2022/11/25 04:48:24;;;;;;;6.13;1.90;;;;;;;7.17;100.00;101160.41;7365379;19;20135;-80
2022/11/25 04:50:53;;;;;;;5.38;1.70;;;;;;;7.22;100.00;101166.66;7368996;19;20011;-81
2022/11/25 04:53:26;;;;;;;5.43;2.00;;;;;;;7.26;100.00;101154.59;7373424;19;20017;-82
2022/11/25 04:55:55;;;;;;;6.10;1.60;;;;;;;7.16;100.00;101156.94;7375901;19;20071;-80
2022/11/25 05:01:07;;;;;;;4.30;1.80;;;;;;;7.16;100.00;101154.31;7368406;19;20366;-81
2022/11/25 05:03:37;;;;;;;4.10;1.98;;;;;;;7.15;100.00;101159.47;7367292;19;20351;-80
2022/11/25 05:06:12;;;;;;;5.85;2.00;;;;;;;7.12;100.00;101159.38;7372135;19;20011;-81
2022/11/25 05:08:44;;;;;;;6.32;1.77;;;;;;;7.04;100.00;101166.06;7369466;19;20018;-81
2022/11/25 05:11:14;;;;;;;5.70;2.20;;;;;;;7.03;100.00;101166.91;7369714;19;20018;-80
2022/11/25 05:13:43;;;;;;;6.55;2.25;;;;;;;7.02;100.00;101172.97;7368260;19;20011;-81
2022/11/25 05:16:13;;;;;;;9.40;2.72;;;;;;;7.07;100.00;101181.81;7369651;19;20066;-80
2022/11/25 05:18:43;;;;;;;6.28;2.42;;;;;;;7.04;100.00;101184.31;7371120;19;20704;-82
2022/11/25 05:21:12;;;;;;;6.38;2.40;;;;;;;7.00;100.00;101185.94;7373996;19;20050;-81
2022/11/25 05:23:44;;;;;;;5.53;2.20;;;;;;;7.01;100.00;101181.63;7372549;19;20011;-80
2022/11/25 05:26:14;;;;;;;6.28;2.63;;;;;;;7.03;100.00;101196.47;7374523;19;20026;-81
2022/11/25 05:28:44;;;;;;;5.90;2.60;;;;;;;7.00;100.00;101201.59;7370717;19;20021;-80
2022/11/25 05:31:14;;;;;;;8.13;2.90;;;;;;;6.93;100.00;101204.84;7378185;19;20007;-80
2022/11/25 05:33:43;;;;;;;6.60;2.50;;;;;;;6.91;100.00;101211.72;7384132;19;20033;-80
2022/11/25 05:36:13;;;;;;;5.97;2.55;;;;;;;6.91;100.00;101209.09;7380309;19;20039;-80
2022/11/25 05:38:45;;;;;;;10.02;3.20;;;;;;;6.84;100.00;101208.00;7378319;19;20108;-80
2022/11/25 05:41:15;;;;;;;6.80;2.83;;;;;;;6.85;100.00;101217.59;7383557;19;20523;-80
2022/11/25 05:43:46;;;;;;;7.00;2.58;;;;;;;6.83;100.00;101205.34;7382906;19;20023;-81
2022/11/25 05:46:15;;;;;;;6.32;2.63;;;;;;;6.83;100.00;101213.19;7381869;19;20011;-81
2022/11/25 05:48:45;;;;;;;10.90;3.08;;;;;;;6.81;100.00;101213.13;7382380;19;20043;-80
2022/11/25 05:51:15;;;;;;;7.22;3.00;;;;;;;6.76;100.00;101217.28;7383231;19;20030;-80
2022/11/25 05:53:47;;;;;;;7.93;2.85;;;;;;;6.89;100.00;101229.91;7381326;19;20018;-81
2022/11/25 05:56:17;;;;;;;7.82;3.05;;;;;;;6.80;100.00;101213.94;7383955;19;20017;-80
2022/11/25 05:58:46;;;;;;;7.88;2.85;;;;;;;6.79;100.00;101216.50;7384648;19;20022;-80
2022/11/25 06:01:17;;;;;;;6.07;2.55;;;;;;;6.74;100.00;101218.06;7379449;19;20014;-80
2022/11/25 06:03:47;;;;;;;6.78;2.53;;;;;;;6.73;100.00;101217.19;7382184;19;20046;-79
2022/11/25 06:06:17;;;;;;;8.13;3.30;;;;;;;6.70;100.00;101219.69;7381253;19;20487;-80
2022/11/25 06:08:49;;;;;;;7.68;2.90;;;;;;;6.67;100.00;101235.22;7379537;19;20010;-79
2022/11/25 06:11:19;;;;;;;4.00;2.63;;;;;;;6.63;100.00;101241.16;7381437;19;20021;-80
2022/11/25 06:13:50;;;;;;;10.38;2.97;;;;;;;6.62;100.00;101238.50;7381410;19;20207;-80
2022/11/25 06:16:23;;;;;;;9.50;3.05;;;;;;;6.52;100.00;101243.38;7381724;19;20960;-79
2022/11/25 06:18:52;;;;;;;8.73;2.87;;;;;;;6.46;100.00;101237.06;7381610;19;20018;-80
2022/11/25 06:21:22;;;;;;;9.45;3.45;;;;;;;6.52;100.00;101238.16;7381352;19;20022;-79
2022/11/25 06:23:54;;;;;;;8.38;3.03;;;;;;;6.50;100.00;101241.53;7379973;19;20021;-79
2022/11/25 06:26:24;;;;;;;9.68;2.88;;;;;;;6.47;100.00;101238.81;7382684;19;20425;-78
2022/11/25 06:28:56;;;;;;;8.07;2.90;;;;;;;6.45;100.00;101251.81;7380353;19;20131;-80
2022/11/25 06:31:27;;;;;;;9.25;3.58;;;;;;;6.44;100.00;101255.25;7381007;19;20411;-80
2022/11/25 06:33:57;;;;;;;6.40;3.20;;;;;;;6.44;100.00;101255.25;7378667;19;20010;-80
2022/11/25 06:36:26;;;;;;;11.80;3.13;;;;;;;6.55;100.00;101263.44;7382497;19;20017;-79
2022/11/25 06:38:59;;;;;;;9.18;3.25;;;;;;;6.53;100.00;101254.69;7375856;19;20029;-79
2022/11/25 06:41:28;;;;;;;10.45;5.28;;;;;;;6.49;100.00;101261.50;7382015;19;20025;-79
2022/11/25 06:43:58;;;;;;;11.50;4.88;;;;;;;6.44;100.00;101264.78;7377571;19;20035;-79
2022/11/25 06:46:28;;;;;;;12.02;3.58;;;;;;;6.43;100.00;101271.69;7380459;19;20088;-79
2022/11/25 06:49:00;;;;;;;7.55;3.33;;;;;;;6.41;100.00;101282.91;7381057;19;20672;-79
2022/11/25 06:51:30;;;;;;;10.13;3.22;;;;;;;6.36;100.00;101277.50;7376377;19;20014;-79
2022/11/25 06:54:03;;;;;;;13.18;3.65;;;;;;;6.33;100.00;101285.22;7375308;19;20590;-79
2022/11/25 06:56:32;;;;;;;10.30;3.83;;;;;;;6.34;100.00;101284.38;7378561;19;20018;-78
2022/11/25 06:59:02;;;;;;;9.75;3.95;;;;;;;6.34;100.00;101293.91;7376848;19;20013;-78
2022/11/25 07:01:32;;;;;;;8.38;3.35;;;;;;;6.41;100.00;101295.91;7378566;19;20015;-78
2022/11/25 07:04:04;;;;;;;8.18;3.30;;;;;;;6.35;100.00;101301.78;7378697;19;20022;-78
2022/11/25 07:06:34;;;;;;;13.88;4.43;;;;;;;6.32;100.00;101303.41;7379809;19;20022;-78
2022/11/25 07:09:07;;;;;;;7.80;3.25;;;;;;;6.33;100.00;101292.16;7378483;19;20524;-78
2022/11/25 07:11:38;;;;;;;8.95;3.17;;;;;;;6.28;100.00;101305.00;7375983;19;20030;-78
2022/11/25 07:14:11;;;;;;;5.53;3.28;;;;;;;6.36;100.00;101300.97;7379804;19;20729;-78
2022/11/25 07:16:43;;;;;;;9.15;3.35;;;;;;;6.35;100.00;101313.94;7375504;19;20030;-78
2022/11/25 07:19:14;;;;;;;14.07;3.70;;;;;;;6.39;100.00;101318.44;7381809;19;20015;-77
2022/11/25 07:21:45;;;;;;;6.75;2.72;;;;;;;6.45;100.00;101318.66;7378988;19;20031;-77
2022/11/25 07:24:19;;;;;;;6.07;2.20;;;;;;;6.37;100.00;101328.78;7373630;19;20018;-73
2022/11/25 07:26:49;;;;;;;7.72;3.42;;;;;;;6.35;100.00;101332.16;7378172;19;20011;-73
2022/11/25 07:29:19;;;;;;;7.03;2.50;;;;;;;6.37;100.00;101334.00;7376804;19;20344;-73
2022/11/25 07:32:09;;;;;;;8.00;2.75;;;;;;;6.32;100.00;101342.47;7371026;19;20018;-74
2022/11/25 07:34:39;;;;;;;5.93;2.78;;;;;;;6.35;100.00;101347.78;7376198;19;20015;-73
2022/11/25 07:37:09;;;;;;;7.93;2.63;;;;;;;6.43;100.00;101352.47;7377823;19;20011;-73
2022/11/25 07:39:41;;;;;;;8.48;2.75;;;;;;;6.46;100.00;101346.50;7380792;19;20010;-73
2022/11/25 07:42:11;;;;;;;11.95;2.92;;;;;;;6.47;100.00;101354.38;7377544;19;20014;-74
2022/11/25 07:44:41;;;;;;;6.90;2.97;;;;;;;6.47;100.00;101356.09;7377546;19;20019;-72
2022/11/25 07:47:11;;;;;;;7.57;2.50;;;;;;;6.49;100.00;101372.66;7375069;19;20022;-73
2022/11/25 07:49:41;;;;;;;6.03;2.63;;;;;;;6.45;100.00;101371.66;7375665;19;20014;-74
2022/11/25 07:52:11;;;;;;;9.73;2.90;;;;;;;6.43;100.00;101367.22;7366049;19;20588;-73
2022/11/25 07:54:44;;;;;;;10.82;3.10;;;;;;;6.45;100.00;101376.88;7374285;19;20025;-73
2022/11/25 07:57:15;;;;;;;5.85;2.22;;;;;;;6.50;100.00;101395.28;7380224;19;20405;-73
2022/11/25 07:59:45;;;;;;;5.15;2.45;;;;;;;6.54;100.00;101402.38;7381521;19;20014;-73
2022/11/25 08:02:17;;;;;;;6.97;2.17;;;;;;;6.57;100.00;101407.72;7379054;19;20018;-74
2022/11/25 08:04:46;;;;;;;7.93;2.72;;;;;;;6.63;100.00;101399.25;7380632;19;20090;-72
2022/11/25 08:07:16;;;;;;;7.05;2.50;;;;;;;6.66;100.00;101396.75;7380922;19;20011;-74
2022/11/25 08:09:50;;;;;;;6.20;2.28;;;;;;;6.78;100.00;101403.31;7380062;19;20017;-73
2022/11/25 08:12:20;;;;;;;9.02;2.92;;;;;;;6.79;100.00;101414.63;7379540;19;20650;-73
2022/11/25 08:14:52;;;;;;;9.23;2.75;;;;;;;6.87;100.00;101414.09;7376229;19;20573;-74
2022/11/25 08:17:26;;;;;;;7.30;2.80;;;;;;;6.89;100.00;101417.66;7378484;19;20098;-74
2022/11/25 08:19:55;;;;;;;7.80;2.75;;;;;;;6.93;100.00;101418.66;7380603;19;20018;-73
2022/11/25 08:22:35;;;;;;;7.65;2.78;;;;;;;6.91;100.00;101419.44;7380127;19;20074;-74
2022/11/25 08:25:09;;;;;;;9.57;2.85;;;;;;;6.95;100.00;101422.19;7378249;19;20017;-73
2022/11/25 08:27:41;;;;;;;8.63;2.63;;;;;;;6.96;100.00;101428.31;7370005;19;20066;-73
2022/11/25 08:30:12;;;;;;;10.73;2.70;;;;;;;7.08;100.00;101418.31;7372173;19;20022;-73
2022/11/25 08:32:42;;;;;;;6.45;2.47;;;;;;;7.15;100.00;101425.53;7369876;19;20304;-73
2022/11/25 08:35:13;;;;;;;8.55;3.05;;;;;;;7.23;100.00;101424.09;7377750;19;20052;-73
2022/11/25 08:37:44;;;;;;;6.45;2.60;;;;;;;7.32;100.00;101437.44;7370357;19;20017;-74
2022/11/25 08:40:17;;;;;;;9.68;2.95;;;;;;;7.44;100.00;101435.28;7375864;19;20011;-73
2022/11/25 08:42:46;;;;;;;5.28;2.15;;;;;;;7.50;100.00;101430.25;7375905;19;20014;-72
2022/11/25 08:45:16;;;;;;;10.63;2.47;;;;;;;7.60;100.00;101441.03;7375461;19;20018;-72
2022/11/25 08:47:46;;;;;;;9.15;2.70;;;;;;;7.67;100.00;101432.56;7370397;19;20033;-73
2022/11/25 08:50:16;;;;;;;9.77;2.50;;;;;;;7.63;100.00;101436.81;7372373;19;20519;-73
2022/11/25 08:52:46;;;;;;;6.20;2.17;;;;;;;7.73;100.00;101457.16;7369594;19;20015;-73
2022/11/25 08:55:21;;;;;;;6.18;2.45;;;;;;;7.67;100.00;101450.84;7370548;19;20017;-72
2022/11/25 08:57:50;;;;;;;7.95;2.35;;;;;;;7.66;100.00;101456.91;7375751;19;20443;-73
2022/11/25 09:00:21;;;;;;;8.75;2.22;;;;;;;7.71;100.00;101461.44;7374418;19;20098;-73
2022/11/25 09:02:51;;;;;;;5.35;2.30;;;;;;;7.74;100.00;101466.78;7379116;19;20023;-73
2022/11/25 09:05:22;;;;;;;7.80;2.45;;;;;;;7.72;100.00;101470.16;7375415;19;20014;-73
2022/11/25 09:07:52;;;;;;;9.00;3.05;;;;;;;7.75;100.00;101475.50;7371334;19;20014;-73
2022/11/25 09:10:24;;;;;;;7.40;2.08;;;;;;;7.78;100.00;101473.00;7373052;19;20511;-74
2022/11/25 09:12:54;;;;;;;6.65;2.22;;;;;;;7.84;100.00;101481.94;7370814;19;20022;-73
2022/11/25 09:15:23;;;;;;;7.28;2.33;;;;;;;7.87;100.00;101476.81;7374561;19;20328;-73
2022/11/25 09:18:00;;;;;;;6.90;2.45;;;;;;;7.93;100.00;101491.81;7374576;19;20011;-74
2022/11/25 09:20:31;;;;;;;8.15;2.42;;;;;;;7.93;100.00;101494.41;7379046;19;20401;-73
2022/11/25 09:23:01;;;;;;;9.05;3.25;;;;;;;8.01;100.00;101492.06;7379131;19;20027;-73
2022/11/25 09:25:33;;;;;;;8.63;2.50;;;;;;;8.07;100.00;101497.50;7372719;19;20010;-73
2022/11/25 09:28:03;;;;;;;8.07;2.47;;;;;;;8.12;100.00;101495.94;7375020;19;20479;-72
2022/11/25 09:30:33;;;;;;;10.02;3.10;;;;;;;8.16;100.00;101508.25;7375887;19;20020;-73
2022/11/25 09:33:03;;;;;;;6.90;2.65;;;;;;;8.28;100.00;101510.41;7371415;19;20014;-73
2022/11/25 09:35:32;;;;;;;13.98;2.97;;;;;;;8.31;100.00;101518.34;7373470;19;20024;-74
2022/11/25 09:38:02;;;;;;;12.43;3.03;;;;;;;8.32;100.00;101527.94;7369736;19;20026;-73
2022/11/25 09:40:41;;;;;;;8.13;3.05;;;;;;;8.39;100.00;101535.16;7372638;19;20055;-74
2022/11/25 09:49:10;;;;;;;7.43;2.45;;;;;;;8.58;100.00;101532.31;7369961;19;20509;-73
2022/11/25 09:51:49;;;;;;;15.95;3.67;;;;;;;8.64;100.00;101540.34;7369250;19;20018;-73
2022/11/25 09:54:27;;;;;;;11.07;2.38;;;;;;;8.73;100.00;101551.09;7368897;19;20118;-74
2022/11/25 09:57:13;;;;;;;14.10;3.22;;;;;;;8.81;100.00;101549.63;7374369;19;20094;-73
2022/11/25 10:13:29;;;;;;;;;;;;;;;;;;;;;
2022/11/25 10:20:10;;;;;;;6.90;2.88;;;;;;;9.35;100.00;101570.47;7380882;19;20025;-73
2022/11/25 10:23:29;;;;;;;9.15;2.80;;;;;;;9.51;100.00;101571.78;7376377;19;20479;-74
2022/11/25 10:33:51;;;;;;;12.40;3.13;;;;;;;9.71;100.00;101581.09;7375188;19;20007;-73
2022/11/25 10:37:14;;;;;;;14.65;3.22;;;;;;;9.80;100.00;101589.22;7377484;19;20044;-73
2022/11/25 10:40:33;;;;;;;10.30;3.25;;;;;;;9.86;100.00;101588.50;7375517;19;20014;-73
2022/11/25 10:43:48;;;;;;;7.78;2.42;;;;;;;9.96;100.00;101595.78;7377291;19;20098;-74
2022/11/25 10:50:36;;;;;;;11.80;3.40;;;;;;;10.15;100.00;101611.16;7373169;19;20040;-74
2022/11/25 10:53:19;;;;;;;10.77;2.53;;;;;;;10.34;100.00;101606.44;7373239;19;20052;-73
2022/11/25 10:59:34;;;;;;;8.60;3.30;;;;;;;10.34;100.00;101612.59;7375944;19;20605;-74
2022/11/25 11:05:25;;;;;;;10.95;2.50;;;;;;;10.49;100.00;101628.69;7378118;19;20014;-73
2022/11/25 11:08:29;;;;;;;13.50;2.53;;;;;;;10.40;100.00;101641.56;7377704;19;20098;-74
2022/11/25 11:11:22;;;;;;;12.15;3.10;;;;;;;10.43;100.00;101643.38;7372265;19;20014;-73
2022/11/25 11:14:28;;;;;;;9.98;2.90;;;;;;;10.39;100.00;101646.78;7374051;19;20018;-73
2022/11/25 11:17:00;;;;;;;16.02;3.30;;;;;;;10.39;100.00;101662.53;7371025;19;20024;-73
2022/11/25 11:19:32;;;;;;;12.77;2.63;;;;;;;10.51;100.00;101652.34;7381284;19;20017;-73
2022/11/25 11:22:17;;;;;;;10.32;2.25;;;;;;;10.59;100.00;101663.91;7377625;19;20675;-74
2022/11/25 11:25:07;;;;;;;12.15;3.17;;;;;;;10.68;100.00;101666.78;7375232;19;20019;-74
2022/11/25 11:27:39;;;;;;;8.70;2.33;;;;;;;10.79;100.00;101665.31;7373708;19;20027;-74
2022/11/25 11:30:19;;;;;;;8.98;2.90;;;;;;;10.68;100.00;101668.50;7377489;19;20621;-75
2022/11/25 11:32:59;;;;;;;13.30;3.90;;;;;;;10.68;100.00;101669.41;7377687;19;20021;-74
2022/11/25 11:35:40;;;;;;;12.00;2.55;;;;;;;10.60;100.00;101681.44;7373369;19;20039;-73
2022/11/25 11:38:25;;;;;;;11.40;2.13;;;;;;;10.56;100.00;101686.56;7374167;19;20007;-74
2022/11/25 11:41:13;;;;;;;7.88;2.28;;;;;;;10.52;100.00;101695.19;7377759;19;20044;-74
2022/11/25 11:44:03;;;;;;;18.05;3.20;;;;;;;10.34;100.00;101690.34;7377426;19;20372;-73
2022/11/25 11:46:49;;;;;;;10.60;2.47;;;;;;;10.13;100.00;101695.84;7378502;19;20044;-73
2022/11/25 11:49:36;;;;;;;9.05;2.97;;;;;;;10.01;100.00;101700.72;7374437;19;20021;-73
2022/11/25 11:52:12;;;;;;;9.95;2.50;;;;;;;9.98;100.00;101701.53;7375550;19;20018;-74
2022/11/25 11:54:46;;;;;;;11.60;2.40;;;;;;;10.17;100.00;101710.81;7375240;19;20014;-74
2022/11/25 11:57:29;;;;;;;10.07;2.47;;;;;;;10.29;100.00;101707.69;7378560;19;20043;-74
2022/11/25 12:00:04;;;;;;;10.13;2.65;;;;;;;10.21;100.00;101714.44;7377965;19;20027;-74
2022/11/25 12:02:54;;;;;;;8.02;2.42;;;;;;;10.23;100.00;101713.66;7376417;19;20017;-74
2022/11/25 12:05:27;;;;;;;11.95;2.90;;;;;;;10.46;100.00;101716.88;7375738;19;20089;-74
2022/11/25 12:08:08;;;;;;;11.43;2.60;;;;;;;10.52;100.00;101717.06;7377217;19;20642;-74
2022/11/25 12:10:40;;;;;;;13.32;2.95;;;;;;;10.66;100.00;101718.31;7376607;19;20014;-73
2022/11/25 12:13:20;;;;;;;12.85;2.97;;;;;;;10.61;100.00;101719.03;7372008;19;20007;-74
2022/11/25 12:15:56;;;;;;;11.05;2.75;;;;;;;10.72;100.00;101723.72;7374842;19;20010;-74
2022/11/25 12:18:42;;;;;;;16.02;2.90;;;;;;;10.94;100.00;101733.06;7374668;19;20900;-73
2022/11/25 12:21:24;;;;;;;11.38;3.38;;;;;;;10.99;100.00;101720.94;7375230;19;20021;-72
2022/11/25 12:24:03;;;;;;;12.85;2.88;;;;;;;10.89;100.00;101737.28;7374500;19;20078;-72
2022/11/25 12:26:41;;;;;;;14.50;3.53;;;;;;;10.67;100.00;101748.94;7377156;19;20006;-73
2022/11/25 12:29:21;;;;;;;14.73;3.03;;;;;;;10.60;100.00;101735.63;7372132;19;20014;-73
2022/11/25 12:31:57;;;;;;;11.02;3.45;;;;;;;10.54;100.00;101745.94;7373438;19;20007;-73
2022/11/25 12:34:37;;;;;;;12.02;3.30;;;;;;;10.44;100.00;101750.94;7368263;19;20106;-72
2022/11/25 12:37:15;;;;;;;12.80;3.20;;;;;;;10.41;100.00;101760.44;7375219;19;20022;-73
2022/11/25 12:39:52;;;;;;;9.50;2.33;;;;;;;10.47;100.00;101760.63;7365753;19;20014;-72
2022/11/25 12:42:25;;;;;;;14.57;2.92;;;;;;;10.40;100.00;101759.56;7369547;19;20003;-73
2022/11/25 12:45:06;;;;;;;7.68;2.38;;;;;;;10.37;100.00;101763.88;7375553;19;20017;-72
2022/11/25 12:47:36;;;;;;;12.85;3.35;;;;;;;10.32;100.00;101762.84;7377265;19;20098;-74
2022/11/25 12:50:07;;;;;;;14.75;3.20;;;;;;;10.29;100.00;101770.63;7372527;19;20018;-74
2022/11/25 12:52:46;;;;;;;12.73;3.08;;;;;;;10.30;100.00;101772.41;7375741;19;20021;-75
2022/11/25 12:55:19;;;;;;;12.75;2.90;;;;;;;10.36;100.00;101770.84;7375318;19;20615;-75
2022/11/25 12:58:18;;;;;;;17.75;3.40;;;;;;;10.52;100.00;101784.34;7378728;19;20011;-74
2022/11/25 13:01:17;;;;;;;18.00;3.38;;;;;;;10.63;100.00;101783.81;7375057;19;20007;-74
2022/11/25 13:04:25;;;;;;;9.50;3.38;;;;;;;10.67;100.00;101785.69;7372463;19;20006;-74
2022/11/25 13:07:31;;;;;;;11.95;3.38;;;;;;;10.80;100.00;101793.03;7373747;19;20027;-74
2022/11/25 13:10:30;;;;;;;9.88;2.78;;;;;;;10.83;100.00;101787.00;7375645;19;20018;-75
2022/11/25 13:13:11;;;;;;;17.27;3.35;;;;;;;10.86;100.00;101792.31;7378092;19;20014;-74
2022/11/25 13:15:48;;;;;;;16.13;3.45;;;;;;;10.97;100.00;101796.13;7371145;19;20483;-73
2022/11/25 13:18:25;;;;;;;14.40;3.47;;;;;;;11.00;100.00;101801.47;7377614;19;20013;-73
2022/11/25 13:20:56;;;;;;;12.25;3.17;;;;;;;10.96;100.00;101796.09;7378421;19;20021;-73
2022/11/25 13:23:31;;;;;;;12.40;3.42;;;;;;;10.98;100.00;101805.78;7376751;19;20015;-73
2022/11/25 13:26:35;;;;;;;16.98;3.88;;;;;;;10.98;100.00;101808.41;7375207;19;20082;-73
2022/11/25 13:29:44;;;;;;;13.25;3.28;;;;;;;10.92;100.00;101807.34;7371831;19;20018;-74
2022/11/25 13:32:41;;;;;;;16.35;3.42;;;;;;;10.88;100.00;101816.00;7369275;19;20011;-75
2022/11/25 13:35:54;;;;;;;14.27;2.88;;;;;;;10.88;100.00;101826.47;7370074;19;20031;-74
2022/11/25 13:39:03;;;;;;;8.77;2.78;;;;;;;10.85;100.00;101837.78;7373063;19;20018;-74
2022/11/25 13:41:43;;;;;;;14.65;3.25;;;;;;;10.82;100.00;101833.34;7374434;19;20015;-73